Time;durP1;ratioP1;P1;durP2;ratioP2;P2;SDS_P1;SDS_P2;PMS_P1;PMS_P2;Temp;Humidity;BMP_temperature;BMP_pressure;BME280_temperature;BME280_humidity;BME280_pressure;Samples;Min_cycle;Max_cycle;Signal;HPM_P1;HPM_P2
2024/04/24 00:00:20;;;;;;;9.80;9.00;;;;;;;;;;5525930;26;20332;-78
2024/04/24 00:02:46;;;;;;;9.23;8.53;;;;;;;;;;5526765;26;20987;-78
2024/04/24 00:05:12;;;;;;;8.93;8.23;;;;;;;;;;5520990;26;20324;-78
2024/04/24 00:07:38;;;;;;;9.40;8.60;;;;;;;;;;5494113;26;20824;-81
2024/04/24 00:10:04;;;;;;;9.25;8.45;;;;;;;;;;5526252;26;20343;-79
2024/04/24 00:12:30;;;;;;;9.63;8.82;;;;;;;;;;5526561;26;20355;-79
2024/04/24 00:14:56;;;;;;;9.33;8.57;;;;;;;;;;5526484;26;20332;-79
2024/04/24 00:17:22;;;;;;;8.75;8.07;;;;;;;;;;5526503;26;20324;-79
2024/04/24 00:19:48;;;;;;;8.93;8.23;;;;;;;;;;5525566;26;20327;-78
2024/04/24 00:22:14;;;;;;;9.00;8.30;;;;;;;;;;5526802;26;20672;-80
2024/04/24 00:24:40;;;;;;;8.20;7.60;;;;;;;;;;5518034;26;20368;-78
2024/04/24 00:27:06;;;;;;;9.00;8.20;;;;;;;;;;5519090;26;20331;-80
2024/04/24 00:29:32;;;;;;;8.43;7.75;;;;;;;;;;5526005;26;20372;-79
2024/04/24 00:32:04;;;;;;;8.70;8.00;;;;;;;;;;5526116;26;20343;-79
2024/04/24 00:34:31;;;;;;;8.90;8.20;;;;;;;;;;5493552;26;20710;-79
2024/04/24 00:36:57;;;;;;;9.20;8.40;;;;;;;;;;5525960;26;20406;-80
2024/04/24 00:39:22;;;;;;;9.53;8.73;;;;;;;;;;5525524;26;20336;-80
2024/04/24 00:41:48;;;;;;;9.70;8.90;;;;;;;;;;5525538;26;20449;-79
2024/04/24 00:44:14;;;;;;;9.70;9.00;;;;;;;;;;5525924;26;20335;-78
2024/04/24 00:46:41;;;;;;;10.60;9.70;;;;;;;;;;5524687;26;20368;-79
2024/04/24 00:49:07;;;;;;;9.48;8.73;;;;;;;;;;5522859;26;20725;-78
2024/04/24 00:51:35;;;;;;;10.52;9.73;;;;;;;;;;5524864;26;20401;-80
2024/04/24 00:54:01;;;;;;;10.45;9.55;;;;;;;;;;5524913;26;20339;-80
2024/04/24 00:56:27;;;;;;;11.63;10.73;;;;;;;;;;5524914;26;20738;-80
2024/04/24 00:58:53;;;;;;;11.10;10.10;;;;;;;;;;5525232;26;20921;-80
2024/04/24 01:01:19;;;;;;;11.73;10.73;;;;;;;;;;5525536;26;20343;-80
2024/04/24 01:03:46;;;;;;;12.13;11.13;;;;;;;;;;5499586;26;20328;-79
2024/04/24 01:06:12;;;;;;;13.15;11.95;;;;;;;;;;5492903;26;20367;-80
2024/04/24 01:08:38;;;;;;;12.55;11.55;;;;;;;;;;5526628;26;20355;-79
2024/04/24 01:11:04;;;;;;;13.30;12.10;;;;;;;;;;5526673;26;20392;-79
2024/04/24 01:13:30;;;;;;;13.13;12.00;;;;;;;;;;5527044;26;20343;-79
2024/04/24 01:15:59;;;;;;;14.23;12.93;;;;;;;;;;5526474;26;20336;-79
2024/04/24 01:18:26;;;;;;;15.93;14.38;;;;;;;;;;5491814;26;20319;-79
2024/04/24 01:20:53;;;;;;;17.25;15.45;;;;;;;;;;5524342;26;20328;-79
2024/04/24 01:23:25;;;;;;;16.88;15.27;;;;;;;;;;5524773;26;20421;-79
2024/04/24 01:26:07;;;;;;;16.07;14.67;;;;;;;;;;5508686;26;20323;-79
2024/04/24 01:28:33;;;;;;;15.33;14.03;;;;;;;;;;5524247;26;20324;-79
2024/04/24 01:31:00;;;;;;;14.95;13.65;;;;;;;;;;5498972;26;20413;-79
2024/04/24 01:33:26;;;;;;;14.82;13.52;;;;;;;;;;5524667;26;20437;-79
2024/04/24 01:35:52;;;;;;;15.43;13.90;;;;;;;;;;5524152;26;20328;-79
2024/04/24 01:38:18;;;;;;;15.50;14.10;;;;;;;;;;5524445;26;20331;-79
2024/04/24 01:40:44;;;;;;;15.85;14.45;;;;;;;;;;5524159;26;20380;-79
2024/04/24 01:43:12;;;;;;;14.73;13.43;;;;;;;;;;5524072;26;20327;-79
2024/04/24 01:45:38;;;;;;;15.80;14.30;;;;;;;;;;5524490;26;20809;-80
2024/04/24 01:48:04;;;;;;;16.02;14.63;;;;;;;;;;5524983;26;20344;-79
2024/04/24 01:50:30;;;;;;;12.20;11.07;;;;;;;;;;5522121;26;20429;-79
2024/04/24 01:52:56;;;;;;;11.18;10.27;;;;;;;;;;5490320;26;20324;-79
2024/04/24 01:55:22;;;;;;;10.23;9.23;;;;;;;;;;5523849;26;20355;-79
2024/04/24 01:57:48;;;;;;;11.25;10.25;;;;;;;;;;5523838;26;20670;-79
2024/04/24 02:00:14;;;;;;;10.93;10.02;;;;;;;;;;5523601;26;20377;-79
2024/04/24 02:02:40;;;;;;;11.80;10.70;;;;;;;;;;5523452;26;20669;-79
2024/04/24 02:05:06;;;;;;;10.77;9.88;;;;;;;;;;5523439;26;20332;-79
2024/04/24 02:07:32;;;;;;;10.27;9.43;;;;;;;;;;5523663;26;20327;-79
2024/04/24 02:09:58;;;;;;;11.20;10.20;;;;;;;;;;5523060;26;20360;-79
2024/04/24 02:12:24;;;;;;;11.20;10.25;;;;;;;;;;5523292;26;20725;-79
2024/04/24 02:14:50;;;;;;;11.57;10.57;;;;;;;;;;5521748;26;20324;-79
2024/04/24 02:17:16;;;;;;;11.90;10.90;;;;;;;;;;5523375;26;20824;-79
2024/04/24 02:19:42;;;;;;;16.97;15.37;;;;;;;;;;5523629;26;20457;-79
2024/04/24 02:22:09;;;;;;;18.30;16.50;;;;;;;;;;5523499;26;20340;-79
2024/04/24 02:27:20;;;;;;;20.90;18.63;;;;;;;;;;5520392;26;20363;-79
2024/04/24 02:29:46;;;;;;;19.97;17.87;;;;;;;;;;5524018;26;20554;-79
2024/04/24 02:32:11;;;;;;;20.23;17.85;;;;;;;;;;5524138;26;20328;-79
2024/04/24 02:34:37;;;;;;;19.38;16.55;;;;;;;;;;5524234;26;20328;-79
2024/04/24 02:37:04;;;;;;;18.20;16.38;;;;;;;;;;5523573;26;20328;-79
2024/04/24 02:39:30;;;;;;;19.63;17.63;;;;;;;;;;5523890;26;20331;-79
2024/04/24 02:41:56;;;;;;;19.00;17.10;;;;;;;;;;5523820;26;20423;-79
2024/04/24 02:44:22;;;;;;;18.30;16.50;;;;;;;;;;5523820;26;20327;-79
2024/04/24 02:46:48;;;;;;;20.02;18.00;;;;;;;;;;5523497;26;20323;-79
2024/04/24 02:49:14;;;;;;;22.15;19.75;;;;;;;;;;5523567;26;20355;-78
2024/04/24 02:51:40;;;;;;;24.30;20.25;;;;;;;;;;5523054;26;21277;-79
2024/04/24 02:54:06;;;;;;;22.73;19.95;;;;;;;;;;5523096;26;20324;-78
2024/04/24 02:56:32;;;;;;;22.35;19.95;;;;;;;;;;5523809;26;20429;-79
2024/04/24 02:58:58;;;;;;;23.85;20.50;;;;;;;;;;5524212;26;20856;-78
2024/04/24 03:01:24;;;;;;;24.10;21.30;;;;;;;;;;5523709;26;20413;-78
2024/04/24 03:03:50;;;;;;;24.63;21.13;;;;;;;;;;5523890;26;20323;-78
2024/04/24 03:06:16;;;;;;;23.42;20.50;;;;;;;;;;5527331;26;20327;-78
2024/04/24 03:08:42;;;;;;;22.85;19.92;;;;;;;;;;5527639;26;20327;-78
2024/04/24 03:11:08;;;;;;;24.27;20.88;;;;;;;;;;5527324;26;20700;-78
2024/04/24 03:13:36;;;;;;;25.15;21.42;;;;;;;;;;5526201;26;20319;-78
2024/04/24 03:16:02;;;;;;;26.73;21.77;;;;;;;;;;5526336;26;20383;-78
2024/04/24 03:18:28;;;;;;;30.42;23.90;;;;;;;;;;5525804;26;20331;-78
2024/04/24 03:20:54;;;;;;;27.75;22.77;;;;;;;;;;5525945;26;20343;-78
2024/04/24 03:23:20;;;;;;;29.73;23.63;;;;;;;;;;5526019;26;20387;-78
2024/04/24 03:25:46;;;;;;;29.88;23.40;;;;;;;;;;5509642;26;20327;-78
2024/04/24 03:28:12;;;;;;;28.87;23.93;;;;;;;;;;5526185;26;20427;-78
2024/04/24 03:30:37;;;;;;;30.70;24.40;;;;;;;;;;5518768;26;20722;-80
2024/04/24 03:33:04;;;;;;;29.67;23.73;;;;;;;;;;5496276;26;20345;-78
2024/04/24 03:35:30;;;;;;;28.70;23.25;;;;;;;;;;5491532;26;20358;-78
2024/04/24 03:37:56;;;;;;;27.85;22.70;;;;;;;;;;5525171;26;20440;-78
2024/04/24 03:40:22;;;;;;;26.02;22.58;;;;;;;;;;5525996;26;20339;-78
2024/04/24 03:42:48;;;;;;;25.77;22.43;;;;;;;;;;5526018;26;20379;-78
2024/04/24 03:45:14;;;;;;;25.55;21.77;;;;;;;;;;5525787;26;20324;-78
2024/04/24 03:47:40;;;;;;;28.02;22.48;;;;;;;;;;5525766;26;20332;-78
2024/04/24 03:50:06;;;;;;;28.75;22.98;;;;;;;;;;5525940;26;20642;-78
2024/04/24 03:52:32;;;;;;;30.30;23.13;;;;;;;;;;5525900;26;20840;-78
2024/04/24 03:54:58;;;;;;;29.48;24.80;;;;;;;;;;5523061;26;20327;-78
2024/04/24 03:57:24;;;;;;;33.35;25.25;;;;;;;;;;5525421;26;20369;-78
2024/04/24 03:59:50;;;;;;;31.65;24.95;;;;;;;;;;5525613;26;20340;-78
2024/04/24 04:02:16;;;;;;;33.47;25.38;;;;;;;;;;5525575;26;20668;-78
2024/04/24 04:04:42;;;;;;;34.43;26.43;;;;;;;;;;5525135;26;20328;-78
2024/04/24 04:07:08;;;;;;;35.47;26.10;;;;;;;;;;5525357;26;20362;-78
2024/04/24 04:09:34;;;;;;;33.25;25.75;;;;;;;;;;5505272;26;20334;-78
2024/04/24 04:12:00;;;;;;;35.53;25.45;;;;;;;;;;5521015;26;20340;-78
2024/04/24 04:14:26;;;;;;;32.40;25.25;;;;;;;;;;5525225;26;20339;-78
2024/04/24 04:16:52;;;;;;;27.13;23.02;;;;;;;;;;5524336;26;20370;-78
2024/04/24 04:19:18;;;;;;;26.52;22.10;;;;;;;;;;5525448;26;20347;-78
2024/04/24 04:21:44;;;;;;;28.52;22.42;;;;;;;;;;5526208;26;20327;-78
2024/04/24 04:24:10;;;;;;;26.25;21.85;;;;;;;;;;5525240;26;20323;-78
2024/04/24 04:26:36;;;;;;;26.10;21.98;;;;;;;;;;5525282;26;20856;-78
2024/04/24 04:29:02;;;;;;;25.77;21.37;;;;;;;;;;5525505;26;20343;-78
2024/04/24 04:31:28;;;;;;;25.67;21.73;;;;;;;;;;5525589;26;20374;-78
2024/04/24 04:33:54;;;;;;;24.00;21.02;;;;;;;;;;5525358;26;20857;-78
2024/04/24 04:36:20;;;;;;;24.90;21.40;;;;;;;;;;5525200;26;20331;-78
2024/04/24 04:38:46;;;;;;;24.45;20.42;;;;;;;;;;5524962;26;20372;-78
2024/04/24 04:41:12;;;;;;;22.83;20.17;;;;;;;;;;5525118;26;20335;-78
2024/04/24 04:43:37;;;;;;;24.55;21.10;;;;;;;;;;5525190;26;20389;-78
2024/04/24 04:46:04;;;;;;;25.75;22.40;;;;;;;;;;5524977;26;20331;-79
2024/04/24 04:48:29;;;;;;;27.50;22.85;;;;;;;;;;5524827;26;20331;-78
2024/04/24 04:50:55;;;;;;;30.92;24.25;;;;;;;;;;5524670;26;20941;-80
2024/04/24 04:53:21;;;;;;;33.95;24.33;;;;;;;;;;5524298;26;20327;-80
2024/04/24 04:55:47;;;;;;;37.33;25.70;;;;;;;;;;5522395;26;20368;-78
2024/04/24 04:58:13;;;;;;;34.75;25.80;;;;;;;;;;5524580;26;21234;-78
2024/04/24 05:00:40;;;;;;;33.83;25.30;;;;;;;;;;5524645;26;20376;-78
2024/04/24 05:03:07;;;;;;;35.60;26.05;;;;;;;;;;5524928;26;20949;-78
2024/04/24 05:05:33;;;;;;;33.22;25.17;;;;;;;;;;5524707;26;20368;-80
2024/04/24 05:07:59;;;;;;;33.60;24.58;;;;;;;;;;5526359;26;20332;-80
2024/04/24 05:10:25;;;;;;;34.17;25.05;;;;;;;;;;5525840;26;20343;-79
2024/04/24 05:12:51;;;;;;;31.98;24.45;;;;;;;;;;5526164;26;20336;-80
2024/04/24 05:15:17;;;;;;;33.63;25.10;;;;;;;;;;5524806;26;20331;-77
2024/04/24 05:17:43;;;;;;;32.17;24.63;;;;;;;;;;5524045;26;20901;-78
2024/04/24 05:20:09;;;;;;;32.07;23.73;;;;;;;;;;5523929;26;20690;-78
2024/04/24 05:22:46;;;;;;;31.75;24.83;;;;;;;;;;5524381;26;20359;-81
2024/04/24 05:25:13;;;;;;;33.38;24.45;;;;;;;;;;5508516;26;20363;-79
2024/04/24 05:30:24;;;;;;;33.75;25.20;;;;;;;;;;5525221;26;20348;-79
2024/04/24 05:32:50;;;;;;;35.50;25.27;;;;;;;;;;5524270;26;20335;-80
2024/04/24 05:35:16;;;;;;;35.30;26.23;;;;;;;;;;5525279;26;20332;-79
2024/04/24 05:37:42;;;;;;;34.28;26.02;;;;;;;;;;5524942;26;20863;-81
2024/04/24 05:40:08;;;;;;;31.50;24.35;;;;;;;;;;5526454;26;20335;-79
2024/04/24 05:42:34;;;;;;;32.85;24.50;;;;;;;;;;5527954;26;20367;-80
2024/04/24 05:45:00;;;;;;;31.92;24.20;;;;;;;;;;5527759;26;20350;-79
2024/04/24 05:47:26;;;;;;;34.55;24.67;;;;;;;;;;5526108;26;20360;-80
2024/04/24 05:49:53;;;;;;;31.05;24.88;;;;;;;;;;5526038;26;20328;-81
2024/04/24 05:52:19;;;;;;;30.70;23.97;;;;;;;;;;5527091;26;20511;-80
2024/04/24 05:54:45;;;;;;;28.75;22.58;;;;;;;;;;5525978;26;20327;-81
2024/04/24 05:57:11;;;;;;;26.87;22.10;;;;;;;;;;5525478;26;21117;-80
2024/04/24 05:59:37;;;;;;;28.73;23.20;;;;;;;;;;5525765;26;20331;-80
2024/04/24 06:02:03;;;;;;;27.55;22.67;;;;;;;;;;5524583;26;20372;-80
2024/04/24 06:04:29;;;;;;;27.25;22.58;;;;;;;;;;5524509;26;20335;-80
2024/04/24 06:06:55;;;;;;;31.67;23.67;;;;;;;;;;5519022;26;20328;-80
2024/04/24 06:09:21;;;;;;;27.80;22.20;;;;;;;;;;5523561;26;20414;-78
2024/04/24 06:11:47;;;;;;;26.33;21.67;;;;;;;;;;5523635;26;20358;-78
2024/04/24 06:14:13;;;;;;;28.30;22.10;;;;;;;;;;5523884;26;20335;-77
2024/04/24 06:16:39;;;;;;;31.00;22.52;;;;;;;;;;5523779;26;20874;-78
2024/04/24 06:19:05;;;;;;;26.50;21.55;;;;;;;;;;5523600;26;20331;-78
2024/04/24 06:21:31;;;;;;;26.20;21.05;;;;;;;;;;5523429;26;20690;-78
2024/04/24 06:23:57;;;;;;;22.52;20.08;;;;;;;;;;5523416;26;20355;-78
2024/04/24 06:26:23;;;;;;;23.17;19.95;;;;;;;;;;5507232;26;20328;-78
2024/04/24 06:28:49;;;;;;;21.02;17.45;;;;;;;;;;5521277;26;20320;-78
2024/04/24 06:31:15;;;;;;;21.60;19.30;;;;;;;;;;5523881;26;20781;-78
2024/04/24 06:33:41;;;;;;;19.77;17.67;;;;;;;;;;5523158;26;20324;-78
2024/04/24 06:36:08;;;;;;;20.67;18.40;;;;;;;;;;5523543;26;20836;-78
2024/04/24 06:38:34;;;;;;;21.45;18.20;;;;;;;;;;5517411;26;20312;-79
2024/04/24 06:41:00;;;;;;;21.27;17.40;;;;;;;;;;5526693;26;20371;-80
2024/04/24 06:43:26;;;;;;;21.25;17.83;;;;;;;;;;5527500;26;20327;-80
2024/04/24 06:45:52;;;;;;;20.10;17.23;;;;;;;;;;5527414;26;20354;-80
2024/04/24 06:48:18;;;;;;;19.77;17.67;;;;;;;;;;5526756;26;20344;-80
2024/04/24 06:50:44;;;;;;;20.20;17.17;;;;;;;;;;5526254;26;20417;-80
2024/04/24 06:53:10;;;;;;;19.30;17.20;;;;;;;;;;5527181;26;20327;-80
2024/04/24 06:55:36;;;;;;;22.48;17.90;;;;;;;;;;5527120;26;20360;-80
2024/04/24 06:58:02;;;;;;;19.50;16.83;;;;;;;;;;5524797;26;20686;-80
2024/04/24 07:00:30;;;;;;;17.85;15.98;;;;;;;;;;5526591;26;20335;-80
2024/04/24 07:02:56;;;;;;;18.00;16.15;;;;;;;;;;5526863;25;20447;-80
2024/04/24 07:05:23;;;;;;;18.70;16.38;;;;;;;;;;5527349;25;20427;-80
2024/04/24 07:07:49;;;;;;;16.40;14.70;;;;;;;;;;5527686;25;20331;-80
2024/04/24 07:10:15;;;;;;;17.48;15.60;;;;;;;;;;5527184;26;21199;-80
2024/04/24 07:12:41;;;;;;;17.33;15.63;;;;;;;;;;5527139;26;20526;-80
2024/04/24 07:15:07;;;;;;;16.25;14.55;;;;;;;;;;5527164;26;20320;-80
2024/04/24 07:17:33;;;;;;;16.47;14.67;;;;;;;;;;5526828;26;20350;-80
2024/04/24 07:19:58;;;;;;;16.48;14.77;;;;;;;;;;5526943;26;20328;-80
2024/04/24 07:22:24;;;;;;;15.88;14.38;;;;;;;;;;5527554;26;20376;-80
2024/04/24 07:24:50;;;;;;;16.80;15.00;;;;;;;;;;5521873;26;20327;-80
2024/04/24 07:27:16;;;;;;;16.02;14.32;;;;;;;;;;5526420;26;20327;-80
2024/04/24 07:29:42;;;;;;;15.53;13.93;;;;;;;;;;5526861;26;20323;-80
2024/04/24 07:32:08;;;;;;;15.00;13.70;;;;;;;;;;5527332;26;20323;-80
2024/04/24 07:34:34;;;;;;;13.75;12.40;;;;;;;;;;5528007;26;20809;-80
2024/04/24 07:37:00;;;;;;;14.55;13.15;;;;;;;;;;5527610;26;20331;-78
2024/04/24 07:39:26;;;;;;;14.90;12.85;;;;;;;;;;5526110;26;20319;-78
2024/04/24 07:41:52;;;;;;;14.50;13.13;;;;;;;;;;5525837;26;20364;-78
2024/04/24 07:44:18;;;;;;;14.23;12.73;;;;;;;;;;5526428;26;20391;-78
2024/04/24 07:46:44;;;;;;;12.85;11.75;;;;;;;;;;5525790;26;20332;-78
2024/04/24 07:49:10;;;;;;;13.35;12.10;;;;;;;;;;5525818;26;20399;-79
2024/04/24 07:51:36;;;;;;;12.40;11.30;;;;;;;;;;5526471;26;20400;-78
2024/04/24 07:54:02;;;;;;;11.38;10.38;;;;;;;;;;5526324;26;20335;-79
2024/04/24 07:56:30;;;;;;;11.55;10.50;;;;;;;;;;5487893;26;21016;-79
2024/04/24 07:58:56;;;;;;;11.30;10.40;;;;;;;;;;5523048;26;20331;-79
2024/04/24 08:01:22;;;;;;;10.93;9.90;;;;;;;;;;5526716;26;20331;-79
2024/04/24 08:03:48;;;;;;;10.10;9.20;;;;;;;;;;5526473;26;20454;-78
2024/04/24 08:06:14;;;;;;;9.23;8.40;;;;;;;;;;5526391;26;20331;-79
2024/04/24 08:08:40;;;;;;;9.57;8.77;;;;;;;;;;5525258;26;20327;-78
2024/04/24 08:11:06;;;;;;;9.63;8.82;;;;;;;;;;5525780;25;20332;-79
2024/04/24 08:13:32;;;;;;;9.95;9.05;;;;;;;;;;5522440;26;20433;-79
2024/04/24 08:15:58;;;;;;;9.35;8.55;;;;;;;;;;5525048;26;20335;-79
2024/04/24 08:18:24;;;;;;;9.50;8.65;;;;;;;;;;5525208;26;20367;-79
2024/04/24 08:20:50;;;;;;;8.00;7.20;;;;;;;;;;5524887;26;20323;-79
2024/04/24 08:23:16;;;;;;;8.00;7.30;;;;;;;;;;5525264;26;20808;-79
2024/04/24 08:25:42;;;;;;;7.90;7.30;;;;;;;;;;5525406;26;20428;-79
2024/04/24 08:28:08;;;;;;;8.07;7.38;;;;;;;;;;5525587;26;20323;-79
2024/04/24 08:30:34;;;;;;;5.65;5.15;;;;;;;;;;5525169;26;20428;-78
2024/04/24 08:33:00;;;;;;;5.20;4.80;;;;;;;;;;5525073;26;20323;-79
2024/04/24 08:35:26;;;;;;;5.63;5.13;;;;;;;;;;5509319;26;20424;-78
2024/04/24 08:37:52;;;;;;;5.90;5.40;;;;;;;;;;5524879;26;20327;-78
2024/04/24 08:40:18;;;;;;;6.50;5.87;;;;;;;;;;5525257;26;20367;-78
2024/04/24 08:42:44;;;;;;;5.63;5.13;;;;;;;;;;5523261;26;20323;-78
2024/04/24 08:45:13;;;;;;;5.85;5.25;;;;;;;;;;5525248;26;20420;-79
2024/04/24 08:47:39;;;;;;;6.30;5.80;;;;;;;;;;5525477;26;20399;-79
2024/04/24 08:50:05;;;;;;;6.85;6.22;;;;;;;;;;5525073;26;20324;-78
2024/04/24 08:52:33;;;;;;;6.53;6.03;;;;;;;;;;5525234;26;20331;-78
2024/04/24 08:55:00;;;;;;;8.25;7.45;;;;;;;;;;5525233;26;20332;-78
2024/04/24 08:57:28;;;;;;;7.55;6.85;;;;;;;;;;5525257;26;20780;-79
2024/04/24 08:59:59;;;;;;;6.75;6.15;;;;;;;;;;5523591;26;20474;-78
2024/04/24 09:02:26;;;;;;;6.55;5.72;;;;;;;;;;5524140;26;20339;-78
2024/04/24 09:04:55;;;;;;;6.38;5.78;;;;;;;;;;5524786;26;20368;-78
2024/04/24 09:07:22;;;;;;;6.40;5.80;;;;;;;;;;5524579;26;20358;-79
2024/04/24 09:09:48;;;;;;;6.43;5.82;;;;;;;;;;5524900;26;20339;-78
2024/04/24 09:12:15;;;;;;;6.60;6.00;;;;;;;;;;5524139;26;21044;-78
2024/04/24 09:14:41;;;;;;;6.57;5.97;;;;;;;;;;5524940;26;20458;-78
2024/04/24 09:17:07;;;;;;;4.95;4.57;;;;;;;;;;5524812;26;20898;-79
2024/04/24 09:19:33;;;;;;;5.13;4.63;;;;;;;;;;5523227;26;20324;-78
2024/04/24 09:22:00;;;;;;;4.85;4.35;;;;;;;;;;5523565;26;20327;-78
2024/04/24 09:24:26;;;;;;;4.50;4.10;;;;;;;;;;5524803;26;20678;-78
2024/04/24 09:26:55;;;;;;;4.40;4.00;;;;;;;;;;5523115;26;20376;-78
2024/04/24 09:29:21;;;;;;;5.00;4.03;;;;;;;;;;5523859;25;20844;-77
2024/04/24 09:31:48;;;;;;;3.63;3.33;;;;;;;;;;5523510;26;20352;-78
2024/04/24 09:34:14;;;;;;;3.50;3.20;;;;;;;;;;5523310;26;20328;-78
2024/04/24 09:36:42;;;;;;;3.75;3.42;;;;;;;;;;5523343;26;20474;-80
2024/04/24 09:39:08;;;;;;;3.83;3.53;;;;;;;;;;5524701;26;20328;-79
2024/04/24 09:41:35;;;;;;;3.90;3.60;;;;;;;;;;5519479;26;20335;-79
2024/04/24 09:44:01;;;;;;;4.70;3.65;;;;;;;;;;5524838;26;20324;-80
2024/04/24 09:46:28;;;;;;;4.05;3.67;;;;;;;;;;5524101;26;20397;-79
2024/04/24 09:48:54;;;;;;;3.95;3.65;;;;;;;;;;5523948;26;20827;-80
2024/04/24 09:51:20;;;;;;;4.55;4.15;;;;;;;;;;5524943;26;20360;-80
2024/04/24 09:53:46;;;;;;;4.47;3.70;;;;;;;;;;5524405;26;20661;-79
2024/04/24 09:56:18;;;;;;;4.10;3.70;;;;;;;;;;5524794;26;20331;-79
2024/04/24 09:58:47;;;;;;;3.95;3.65;;;;;;;;;;5524632;26;20324;-80
2024/04/24 10:01:13;;;;;;;5.05;4.55;;;;;;;;;;5522725;26;20332;-78
2024/04/24 10:03:39;;;;;;;4.88;4.35;;;;;;;;;;5524300;26;20381;-78
2024/04/24 10:06:06;;;;;;;4.90;4.47;;;;;;;;;;5523891;26;20788;-78
2024/04/24 10:08:33;;;;;;;4.68;4.28;;;;;;;;;;5523500;25;20408;-77
2024/04/24 10:11:01;;;;;;;4.05;3.70;;;;;;;;;;5523511;26;20332;-78
2024/04/24 10:13:28;;;;;;;4.40;4.00;;;;;;;;;;5523631;26;20324;-78
2024/04/24 10:15:56;;;;;;;4.45;4.05;;;;;;;;;;5521084;26;21059;-78
2024/04/24 10:18:22;;;;;;;4.40;4.00;;;;;;;;;;5522515;26;20343;-77
2024/04/24 10:20:50;;;;;;;3.88;3.53;;;;;;;;;;5517184;26;20331;-77
2024/04/24 10:23:16;;;;;;;4.40;4.00;;;;;;;;;;5523391;26;20327;-77
2024/04/24 10:25:43;;;;;;;4.30;3.90;;;;;;;;;;5522971;26;20323;-77
2024/04/24 10:28:09;;;;;;;4.15;3.75;;;;;;;;;;5523477;26;20379;-80
2024/04/24 10:30:35;;;;;;;3.85;3.55;;;;;;;;;;5524232;26;20328;-80
2024/04/24 10:33:04;;;;;;;3.70;3.37;;;;;;;;;;5522868;26;20359;-77
2024/04/24 10:35:30;;;;;;;3.80;3.40;;;;;;;;;;5523087;26;20371;-77
2024/04/24 10:38:03;;;;;;;3.65;3.35;;;;;;;;;;5524561;26;20877;-79
2024/04/24 10:40:29;;;;;;;4.85;3.47;;;;;;;;;;5523802;26;20368;-77
2024/04/24 10:42:59;;;;;;;3.70;3.40;;;;;;;;;;5522563;26;20327;-77
2024/04/24 10:45:25;;;;;;;3.83;3.43;;;;;;;;;;5522755;26;20471;-77
2024/04/24 10:47:54;;;;;;;4.43;3.92;;;;;;;;;;5522666;26;20392;-76
2024/04/24 10:50:20;;;;;;;4.00;3.65;;;;;;;;;;5522299;26;20436;-77
2024/04/24 10:52:51;;;;;;;4.20;3.80;;;;;;;;;;5525187;26;20740;-79
2024/04/24 10:55:18;;;;;;;4.30;3.90;;;;;;;;;;5522801;26;20332;-77
2024/04/24 10:57:51;;;;;;;4.00;3.70;;;;;;;;;;5522390;26;20335;-77
2024/04/24 11:00:18;;;;;;;4.65;4.20;;;;;;;;;;5522263;26;20449;-77
2024/04/24 11:02:48;;;;;;;4.90;4.50;;;;;;;;;;5521820;26;20466;-77
2024/04/24 11:05:14;;;;;;;4.78;4.38;;;;;;;;;;5508501;26;20410;-77
2024/04/24 11:07:41;;;;;;;4.77;4.37;;;;;;;;;;5522248;26;20332;-77
2024/04/24 11:10:08;;;;;;;4.65;4.25;;;;;;;;;;5522068;26;20339;-77
2024/04/24 11:12:40;;;;;;;5.28;4.20;;;;;;;;;;5522704;26;20800;-77
2024/04/24 11:15:07;;;;;;;5.07;4.57;;;;;;;;;;5522839;26;20673;-78
2024/04/24 11:17:33;;;;;;;5.07;4.57;;;;;;;;;;5518469;26;20736;-77
2024/04/24 11:20:01;;;;;;;4.82;4.30;;;;;;;;;;5521951;26;20619;-77
2024/04/24 11:22:28;;;;;;;4.90;4.50;;;;;;;;;;5521920;26;20357;-77
2024/04/24 11:24:55;;;;;;;4.80;4.28;;;;;;;;;;5521867;26;20331;-77
2024/04/24 11:27:27;;;;;;;4.75;4.25;;;;;;;;;;5525161;25;20362;-77
2024/04/24 11:29:53;;;;;;;4.70;4.35;;;;;;;;;;5525803;26;20327;-78
2024/04/24 11:32:19;;;;;;;4.22;3.92;;;;;;;;;;5525273;26;20354;-77
2024/04/24 11:34:46;;;;;;;4.65;4.25;;;;;;;;;;5525470;26;20383;-77
2024/04/24 11:37:12;;;;;;;5.00;4.60;;;;;;;;;;5525457;26;20765;-78
2024/04/24 11:39:38;;;;;;;4.40;4.00;;;;;;;;;;5525654;26;20335;-78
2024/04/24 11:42:05;;;;;;;5.35;4.85;;;;;;;;;;5526025;26;20442;-77
2024/04/24 11:44:32;;;;;;;5.40;4.50;;;;;;;;;;5526003;26;20546;-77
2024/04/24 11:46:58;;;;;;;4.63;4.22;;;;;;;;;;5526393;26;20328;-77
2024/04/24 11:49:24;;;;;;;5.20;4.70;;;;;;;;;;5525524;26;20428;-77
2024/04/24 11:51:52;;;;;;;5.45;4.95;;;;;;;;;;5526284;26;20876;-78
2024/04/24 11:54:18;;;;;;;4.85;4.45;;;;;;;;;;5524916;26;20332;-77
2024/04/24 11:56:45;;;;;;;4.60;4.20;;;;;;;;;;5525522;26;20820;-77
2024/04/24 11:59:14;;;;;;;4.72;4.30;;;;;;;;;;5526002;25;20327;-78
2024/04/24 12:01:40;;;;;;;4.70;4.30;;;;;;;;;;5525563;25;20363;-77
2024/04/24 12:04:07;;;;;;;4.70;3.78;;;;;;;;;;5525937;26;20363;-77
2024/04/24 12:06:38;;;;;;;4.00;3.70;;;;;;;;;;5523406;26;20356;-77
2024/04/24 12:09:04;;;;;;;4.32;3.92;;;;;;;;;;5526423;25;20332;-79
2024/04/24 12:11:43;;;;;;;4.40;4.00;;;;;;;;;;5493093;26;20826;-77
2024/04/24 12:14:12;;;;;;;5.72;4.05;;;;;;;;;;5506178;26;20854;-77
2024/04/24 12:16:38;;;;;;;3.65;3.35;;;;;;;;;;5525592;26;20323;-77
2024/04/24 12:19:04;;;;;;;3.90;3.58;;;;;;;;;;5524020;26;20425;-77
2024/04/24 12:21:30;;;;;;;4.40;4.00;;;;;;;;;;5524494;26;20363;-78
2024/04/24 12:23:56;;;;;;;4.20;3.83;;;;;;;;;;5525284;26;20387;-78
2024/04/24 12:26:22;;;;;;;4.45;4.05;;;;;;;;;;5525206;26;20335;-78
2024/04/24 12:28:48;;;;;;;4.30;3.90;;;;;;;;;;5524983;26;20401;-77
2024/04/24 12:31:14;;;;;;;5.63;5.13;;;;;;;;;;5525474;26;20323;-80
2024/04/24 12:33:40;;;;;;;5.30;4.90;;;;;;;;;;5526447;26;20336;-79
2024/04/24 12:36:07;;;;;;;5.28;4.75;;;;;;;;;;5527735;25;20366;-79
2024/04/24 12:38:33;;;;;;;5.38;4.93;;;;;;;;;;5525927;26;20346;-80
2024/04/24 12:40:59;;;;;;;5.72;5.25;;;;;;;;;;5526845;26;20328;-79
2024/04/24 12:43:25;;;;;;;5.63;5.13;;;;;;;;;;5526866;26;20903;-79
2024/04/24 12:45:51;;;;;;;5.50;5.00;;;;;;;;;;5524764;26;20328;-79
2024/04/24 12:48:17;;;;;;;5.57;5.18;;;;;;;;;;5526881;26;20320;-79
2024/04/24 12:50:43;;;;;;;5.70;5.20;;;;;;;;;;5526338;26;20334;-80
2024/04/24 12:53:09;;;;;;;6.03;5.50;;;;;;;;;;5525400;26;20856;-77
2024/04/24 12:55:35;;;;;;;5.40;5.00;;;;;;;;;;5524314;25;20343;-77
2024/04/24 12:58:01;;;;;;;5.82;5.32;;;;;;;;;;5525808;26;20316;-80
2024/04/24 13:00:27;;;;;;;6.25;5.65;;;;;;;;;;5525267;26;20363;-77
2024/04/24 13:02:53;;;;;;;5.93;5.43;;;;;;;;;;5524481;26;20450;-77
2024/04/24 13:05:19;;;;;;;5.60;5.20;;;;;;;;;;5528248;26;20355;-79
2024/04/24 13:07:45;;;;;;;5.85;5.35;;;;;;;;;;5525863;26;20324;-79
2024/04/24 13:10:11;;;;;;;5.63;5.23;;;;;;;;;;5526192;26;20323;-79
2024/04/24 13:12:37;;;;;;;5.68;5.18;;;;;;;;;;5527192;26;20371;-79
2024/04/24 13:15:03;;;;;;;4.95;4.55;;;;;;;;;;5526910;25;20400;-79
2024/04/24 13:17:29;;;;;;;5.53;5.13;;;;;;;;;;5526620;26;20369;-79
2024/04/24 13:19:55;;;;;;;5.40;5.00;;;;;;;;;;5525490;26;20316;-79
2024/04/24 13:22:21;;;;;;;5.20;4.80;;;;;;;;;;5526979;26;20478;-79
2024/04/24 13:24:47;;;;;;;5.13;4.68;;;;;;;;;;5527318;26;20812;-79
2024/04/24 13:27:14;;;;;;;5.15;4.75;;;;;;;;;;5527145;26;20682;-79
2024/04/24 13:29:40;;;;;;;5.82;4.85;;;;;;;;;;5525251;26;20319;-79
2024/04/24 13:32:06;;;;;;;5.30;4.85;;;;;;;;;;5529131;26;20360;-78
2024/04/24 13:34:32;;;;;;;5.25;4.85;;;;;;;;;;5524989;26;20315;-78
2024/04/24 13:36:58;;;;;;;5.47;4.97;;;;;;;;;;5525402;26;20419;-79
2024/04/24 13:39:24;;;;;;;4.95;4.57;;;;;;;;;;5524945;26;20347;-79
2024/04/24 13:41:50;;;;;;;5.88;5.38;;;;;;;;;;5525614;26;20367;-79
2024/04/24 13:44:16;;;;;;;5.50;5.10;;;;;;;;;;5524690;26;20340;-79
2024/04/24 13:46:45;;;;;;;6.20;5.63;;;;;;;;;;5524874;25;20846;-79
2024/04/24 13:49:11;;;;;;;6.65;6.15;;;;;;;;;;5525008;26;20328;-79
2024/04/24 13:51:37;;;;;;;7.13;6.43;;;;;;;;;;5525633;26;20366;-79
2024/04/24 13:54:06;;;;;;;7.50;6.88;;;;;;;;;;5526016;26;20354;-79
2024/04/24 13:56:32;;;;;;;8.07;7.28;;;;;;;;;;5525984;26;20327;-79
2024/04/24 13:58:59;;;;;;;7.57;7.07;;;;;;;;;;5525685;26;20864;-78
2024/04/24 14:01:24;;;;;;;7.75;7.15;;;;;;;;;;5525265;26;20439;-79
2024/04/24 14:03:51;;;;;;;7.40;6.80;;;;;;;;;;5525167;26;20331;-79
2024/04/24 14:06:17;;;;;;;6.70;6.20;;;;;;;;;;5524562;26;20366;-79
2024/04/24 14:08:43;;;;;;;6.93;6.32;;;;;;;;;;5522131;26;20323;-77
2024/04/24 14:11:12;;;;;;;7.40;6.82;;;;;;;;;;5525188;26;20320;-80
2024/04/24 14:13:38;;;;;;;7.45;6.90;;;;;;;;;;5509578;25;20935;-79
2024/04/24 14:16:04;;;;;;;6.55;6.15;;;;;;;;;;5522390;26;20319;-77
2024/04/24 14:18:30;;;;;;;5.57;5.05;;;;;;;;;;5523843;26;20336;-77
2024/04/24 14:20:56;;;;;;;4.82;4.45;;;;;;;;;;5524115;26;20327;-77
2024/04/24 14:23:22;;;;;;;5.07;4.68;;;;;;;;;;5518012;26;20382;-77
2024/04/24 14:25:48;;;;;;;5.22;4.72;;;;;;;;;;5524068;26;20365;-78
2024/04/24 14:28:14;;;;;;;4.60;4.30;;;;;;;;;;5523807;26;20371;-78
2024/04/24 14:30:40;;;;;;;5.00;4.50;;;;;;;;;;5524103;26;20945;-77